sensor_id;sensor_type;location;lat;lon;timestamp;P1;durP1;ratioP1;P2;durP2;ratioP2
26906;SDS011;14472;56.880;16.658;2022-07-09T00:00:32;1.08;;;0.60;;
26906;SDS011;14472;56.880;16.658;2022-07-09T00:02:57;2.20;;;0.60;;
26906;SDS011;14472;56.880;16.658;2022-07-09T00:05:23;0.93;;;0.55;;
26906;SDS011;14472;56.880;16.658;2022-07-09T00:07:49;1.38;;;0.70;;
26906;SDS011;14472;56.880;16.658;2022-07-09T00:10:14;0.50;;;0.50;;
26906;SDS011;14472;56.880;16.658;2022-07-09T00:12:40;1.35;;;0.60;;
26906;SDS011;14472;56.880;16.658;2022-07-09T00:15:06;2.05;;;0.82;;
26906;SDS011;14472;56.880;16.658;2022-07-09T00:17:32;0.85;;;0.60;;
26906;SDS011;14472;56.880;16.658;2022-07-09T00:19:58;0.85;;;0.57;;
26906;SDS011;14472;56.880;16.658;2022-07-09T00:22:26;1.08;;;0.57;;
26906;SDS011;14472;56.880;16.658;2022-07-09T00:24:52;1.50;;;0.60;;
26906;SDS011;14472;56.880;16.658;2022-07-09T00:27:18;0.45;;;0.43;;
26906;SDS011;14472;56.880;16.658;2022-07-09T00:29:44;0.57;;;0.45;;
26906;SDS011;14472;56.880;16.658;2022-07-09T00:32:09;0.73;;;0.55;;
26906;SDS011;14472;56.880;16.658;2022-07-09T00:34:35;1.75;;;0.77;;
26906;SDS011;14472;56.880;16.658;2022-07-09T00:37:01;1.00;;;0.60;;
26906;SDS011;14472;56.880;16.658;2022-07-09T00:39:27;0.70;;;0.40;;
26906;SDS011;14472;56.880;16.658;2022-07-09T00:42:05;0.70;;;0.50;;
26906;SDS011;14472;56.880;16.658;2022-07-09T00:44:32;0.70;;;0.63;;
26906;SDS011;14472;56.880;16.658;2022-07-09T00:46:58;0.65;;;0.65;;
26906;SDS011;14472;56.880;16.658;2022-07-09T00:49:24;3.00;;;0.60;;
26906;SDS011;14472;56.880;16.658;2022-07-09T00:51:52;0.95;;;0.60;;
26906;SDS011;14472;56.880;16.658;2022-07-09T00:54:22;0.80;;;0.60;;
26906;SDS011;14472;56.880;16.658;2022-07-09T00:56:49;0.77;;;0.60;;
26906;SDS011;14472;56.880;16.658;2022-07-09T00:59:16;1.23;;;0.60;;
26906;SDS011;14472;56.880;16.658;2022-07-09T01:01:43;0.63;;;0.50;;
26906;SDS011;14472;56.880;16.658;2022-07-09T01:04:09;3.00;;;0.82;;
26906;SDS011;14472;56.880;16.658;2022-07-09T01:06:34;0.88;;;0.47;;
26906;SDS011;14472;56.880;16.658;2022-07-09T01:09:01;0.90;;;0.65;;
26906;SDS011;14472;56.880;16.658;2022-07-09T01:11:28;1.25;;;0.57;;
26906;SDS011;14472;56.880;16.658;2022-07-09T01:13:54;1.17;;;0.60;;
26906;SDS011;14472;56.880;16.658;2022-07-09T01:16:20;2.75;;;0.70;;
26906;SDS011;14472;56.880;16.658;2022-07-09T01:18:47;1.70;;;0.70;;
26906;SDS011;14472;56.880;16.658;2022-07-09T01:21:13;1.92;;;0.70;;
26906;SDS011;14472;56.880;16.658;2022-07-09T01:23:39;0.77;;;0.63;;
26906;SDS011;14472;56.880;16.658;2022-07-09T01:26:05;1.30;;;0.50;;
26906;SDS011;14472;56.880;16.658;2022-07-09T01:28:32;2.13;;;0.70;;
26906;SDS011;14472;56.880;16.658;2022-07-09T01:30:58;1.42;;;0.80;;
26906;SDS011;14472;56.880;16.658;2022-07-09T01:33:24;1.85;;;0.73;;
26906;SDS011;14472;56.880;16.658;2022-07-09T01:35:51;1.92;;;0.70;;
26906;SDS011;14472;56.880;16.658;2022-07-09T01:38:16;2.13;;;0.70;;
26906;SDS011;14472;56.880;16.658;2022-07-09T01:40:42;2.15;;;0.73;;
26906;SDS011;14472;56.880;16.658;2022-07-09T01:43:08;1.08;;;0.70;;
26906;SDS011;14472;56.880;16.658;2022-07-09T01:45:34;4.28;;;0.95;;
26906;SDS011;14472;56.880;16.658;2022-07-09T01:48:00;3.03;;;0.80;;
26906;SDS011;14472;56.880;16.658;2022-07-09T01:50:25;3.60;;;0.88;;
26906;SDS011;14472;56.880;16.658;2022-07-09T01:52:51;2.38;;;0.85;;
26906;SDS011;14472;56.880;16.658;2022-07-09T01:55:17;2.75;;;0.90;;
26906;SDS011;14472;56.880;16.658;2022-07-09T01:57:43;5.93;;;1.00;;
26906;SDS011;14472;56.880;16.658;2022-07-09T02:00:09;3.25;;;0.90;;
26906;SDS011;14472;56.880;16.658;2022-07-09T02:02:35;3.78;;;1.13;;
26906;SDS011;14472;56.880;16.658;2022-07-09T02:05:01;3.33;;;0.90;;
26906;SDS011;14472;56.880;16.658;2022-07-09T02:07:28;3.17;;;0.90;;
26906;SDS011;14472;56.880;16.658;2022-07-09T02:09:54;1.75;;;0.85;;
26906;SDS011;14472;56.880;16.658;2022-07-09T02:12:20;3.42;;;0.98;;
26906;SDS011;14472;56.880;16.658;2022-07-09T02:14:45;2.58;;;1.17;;
26906;SDS011;14472;56.880;16.658;2022-07-09T02:17:11;3.05;;;1.13;;
26906;SDS011;14472;56.880;16.658;2022-07-09T02:19:37;3.92;;;0.90;;
26906;SDS011;14472;56.880;16.658;2022-07-09T02:22:04;4.05;;;1.00;;
26906;SDS011;14472;56.880;16.658;2022-07-09T02:24:29;4.88;;;1.30;;
26906;SDS011;14472;56.880;16.658;2022-07-09T02:26:55;5.25;;;1.25;;
26906;SDS011;14472;56.880;16.658;2022-07-09T02:29:21;2.78;;;1.00;;
26906;SDS011;14472;56.880;16.658;2022-07-09T02:31:47;3.30;;;1.20;;
26906;SDS011;14472;56.880;16.658;2022-07-09T02:34:13;2.83;;;1.10;;
26906;SDS011;14472;56.880;16.658;2022-07-09T02:36:38;4.80;;;1.38;;
26906;SDS011;14472;56.880;16.658;2022-07-09T02:39:04;3.58;;;1.20;;
26906;SDS011;14472;56.880;16.658;2022-07-09T02:41:30;5.85;;;1.30;;
26906;SDS011;14472;56.880;16.658;2022-07-09T02:43:56;6.47;;;1.70;;
26906;SDS011;14472;56.880;16.658;2022-07-09T02:46:22;3.63;;;1.30;;
26906;SDS011;14472;56.880;16.658;2022-07-09T02:48:47;4.53;;;1.50;;
26906;SDS011;14472;56.880;16.658;2022-07-09T02:51:13;4.55;;;1.35;;
26906;SDS011;14472;56.880;16.658;2022-07-09T02:53:39;7.00;;;1.77;;
26906;SDS011;14472;56.880;16.658;2022-07-09T02:56:05;4.68;;;1.40;;
26906;SDS011;14472;56.880;16.658;2022-07-09T02:58:31;4.22;;;1.60;;
26906;SDS011;14472;56.880;16.658;2022-07-09T03:00:57;3.17;;;1.40;;
26906;SDS011;14472;56.880;16.658;2022-07-09T03:03:22;6.00;;;1.48;;
26906;SDS011;14472;56.880;16.658;2022-07-09T03:05:48;9.02;;;2.03;;
26906;SDS011;14472;56.880;16.658;2022-07-09T03:08:14;4.55;;;1.52;;
26906;SDS011;14472;56.880;16.658;2022-07-09T03:10:40;6.32;;;1.67;;
26906;SDS011;14472;56.880;16.658;2022-07-09T03:13:06;4.63;;;1.60;;
26906;SDS011;14472;56.880;16.658;2022-07-09T03:15:31;6.32;;;1.75;;
26906;SDS011;14472;56.880;16.658;2022-07-09T03:17:57;7.13;;;1.60;;
26906;SDS011;14472;56.880;16.658;2022-07-09T03:20:23;6.40;;;1.45;;
26906;SDS011;14472;56.880;16.658;2022-07-09T03:22:49;4.07;;;1.80;;
26906;SDS011;14472;56.880;16.658;2022-07-09T03:25:14;6.32;;;1.75;;
26906;SDS011;14472;56.880;16.658;2022-07-09T03:27:40;7.65;;;1.70;;
26906;SDS011;14472;56.880;16.658;2022-07-09T03:30:06;6.50;;;1.63;;
26906;SDS011;14472;56.880;16.658;2022-07-09T03:32:32;6.35;;;1.60;;
26906;SDS011;14472;56.880;16.658;2022-07-09T03:34:58;5.05;;;1.98;;
26906;SDS011;14472;56.880;16.658;2022-07-09T03:37:23;9.40;;;2.30;;
26906;SDS011;14472;56.880;16.658;2022-07-09T03:39:50;6.35;;;2.25;;
26906;SDS011;14472;56.880;16.658;2022-07-09T03:42:15;9.75;;;2.10;;
26906;SDS011;14472;56.880;16.658;2022-07-09T03:44:41;6.07;;;2.00;;
26906;SDS011;14472;56.880;16.658;2022-07-09T03:47:07;6.28;;;2.22;;
26906;SDS011;14472;56.880;16.658;2022-07-09T03:49:33;6.70;;;2.28;;
26906;SDS011;14472;56.880;16.658;2022-07-09T03:51:59;8.80;;;2.10;;
26906;SDS011;14472;56.880;16.658;2022-07-09T03:54:25;10.45;;;3.15;;
26906;SDS011;14472;56.880;16.658;2022-07-09T03:56:51;7.40;;;2.35;;
26906;SDS011;14472;56.880;16.658;2022-07-09T03:59:17;8.43;;;2.38;;
26906;SDS011;14472;56.880;16.658;2022-07-09T04:01:43;7.53;;;2.40;;
26906;SDS011;14472;56.880;16.658;2022-07-09T04:04:09;9.25;;;2.47;;
26906;SDS011;14472;56.880;16.658;2022-07-09T04:06:35;11.68;;;2.38;;
26906;SDS011;14472;56.880;16.658;2022-07-09T04:09:01;8.65;;;2.50;;
26906;SDS011;14472;56.880;16.658;2022-07-09T04:11:32;9.07;;;2.78;;
26906;SDS011;14472;56.880;16.658;2022-07-09T04:13:58;6.38;;;2.38;;
26906;SDS011;14472;56.880;16.658;2022-07-09T04:16:24;11.30;;;3.03;;
26906;SDS011;14472;56.880;16.658;2022-07-09T04:18:50;5.70;;;2.50;;
26906;SDS011;14472;56.880;16.658;2022-07-09T04:21:16;9.48;;;2.53;;
26906;SDS011;14472;56.880;16.658;2022-07-09T04:23:42;7.28;;;2.92;;
26906;SDS011;14472;56.880;16.658;2022-07-09T04:26:08;6.53;;;2.55;;
26906;SDS011;14472;56.880;16.658;2022-07-09T04:28:37;9.30;;;2.42;;
26906;SDS011;14472;56.880;16.658;2022-07-09T04:31:03;10.80;;;2.90;;
26906;SDS011;14472;56.880;16.658;2022-07-09T04:33:29;9.45;;;2.85;;
26906;SDS011;14472;56.880;16.658;2022-07-09T04:35:55;12.20;;;2.80;;
26906;SDS011;14472;56.880;16.658;2022-07-09T04:38:21;9.73;;;2.83;;
26906;SDS011;14472;56.880;16.658;2022-07-09T04:40:46;9.73;;;2.78;;
26906;SDS011;14472;56.880;16.658;2022-07-09T04:43:12;8.65;;;2.83;;
26906;SDS011;14472;56.880;16.658;2022-07-09T04:45:38;9.95;;;3.00;;
26906;SDS011;14472;56.880;16.658;2022-07-09T04:48:04;9.75;;;2.60;;
26906;SDS011;14472;56.880;16.658;2022-07-09T04:50:30;8.70;;;2.90;;
26906;SDS011;14472;56.880;16.658;2022-07-09T04:52:56;9.82;;;2.75;;
26906;SDS011;14472;56.880;16.658;2022-07-09T04:55:21;11.05;;;3.15;;
26906;SDS011;14472;56.880;16.658;2022-07-09T04:57:48;8.57;;;3.05;;
26906;SDS011;14472;56.880;16.658;2022-07-09T05:00:14;8.60;;;3.00;;
26906;SDS011;14472;56.880;16.658;2022-07-09T05:02:43;8.60;;;3.00;;
26906;SDS011;14472;56.880;16.658;2022-07-09T05:05:10;9.15;;;2.70;;
26906;SDS011;14472;56.880;16.658;2022-07-09T05:07:37;13.07;;;3.17;;
26906;SDS011;14472;56.880;16.658;2022-07-09T05:10:02;8.18;;;2.80;;
26906;SDS011;14472;56.880;16.658;2022-07-09T05:12:29;8.77;;;2.70;;
26906;SDS011;14472;56.880;16.658;2022-07-09T05:14:55;8.35;;;3.00;;
26906;SDS011;14472;56.880;16.658;2022-07-09T05:17:21;10.18;;;3.33;;
26906;SDS011;14472;56.880;16.658;2022-07-09T05:19:48;11.77;;;3.05;;
26906;SDS011;14472;56.880;16.658;2022-07-09T05:22:14;9.68;;;2.97;;
26906;SDS011;14472;56.880;16.658;2022-07-09T05:24:40;9.00;;;3.28;;
26906;SDS011;14472;56.880;16.658;2022-07-09T05:27:06;11.55;;;2.95;;
26906;SDS011;14472;56.880;16.658;2022-07-09T05:29:34;10.85;;;3.03;;
26906;SDS011;14472;56.880;16.658;2022-07-09T05:32:00;9.00;;;2.80;;
26906;SDS011;14472;56.880;16.658;2022-07-09T05:34:27;8.25;;;3.00;;
26906;SDS011;14472;56.880;16.658;2022-07-09T05:36:53;8.10;;;2.92;;
26906;SDS011;14472;56.880;16.658;2022-07-09T05:39:22;10.85;;;3.20;;
26906;SDS011;14472;56.880;16.658;2022-07-09T05:41:48;10.32;;;2.80;;
26906;SDS011;14472;56.880;16.658;2022-07-09T05:44:13;12.43;;;2.75;;
26906;SDS011;14472;56.880;16.658;2022-07-09T05:46:39;8.70;;;2.60;;
26906;SDS011;14472;56.880;16.658;2022-07-09T05:49:06;12.15;;;3.25;;
26906;SDS011;14472;56.880;16.658;2022-07-09T05:51:32;6.43;;;2.80;;
26906;SDS011;14472;56.880;16.658;2022-07-09T05:53:58;9.73;;;3.10;;
26906;SDS011;14472;56.880;16.658;2022-07-09T05:56:24;7.07;;;2.70;;
26906;SDS011;14472;56.880;16.658;2022-07-09T05:58:50;6.68;;;3.05;;
26906;SDS011;14472;56.880;16.658;2022-07-09T06:01:16;11.38;;;2.70;;
26906;SDS011;14472;56.880;16.658;2022-07-09T06:03:42;5.82;;;2.50;;
26906;SDS011;14472;56.880;16.658;2022-07-09T06:06:08;11.98;;;3.03;;
26906;SDS011;14472;56.880;16.658;2022-07-09T06:08:34;11.02;;;2.97;;
26906;SDS011;14472;56.880;16.658;2022-07-09T06:11:00;9.77;;;2.95;;
26906;SDS011;14472;56.880;16.658;2022-07-09T06:13:26;10.82;;;2.70;;
26906;SDS011;14472;56.880;16.658;2022-07-09T06:15:52;10.15;;;2.78;;
26906;SDS011;14472;56.880;16.658;2022-07-09T06:18:18;8.15;;;2.95;;
26906;SDS011;14472;56.880;16.658;2022-07-09T06:20:44;9.82;;;3.00;;
26906;SDS011;14472;56.880;16.658;2022-07-09T06:23:11;9.82;;;2.72;;
26906;SDS011;14472;56.880;16.658;2022-07-09T06:25:37;8.70;;;2.55;;
26906;SDS011;14472;56.880;16.658;2022-07-09T06:28:04;8.15;;;2.38;;
26906;SDS011;14472;56.880;16.658;2022-07-09T06:30:30;10.05;;;3.08;;
26906;SDS011;14472;56.880;16.658;2022-07-09T06:32:56;8.60;;;3.00;;
26906;SDS011;14472;56.880;16.658;2022-07-09T06:35:22;8.77;;;2.47;;
26906;SDS011;14472;56.880;16.658;2022-07-09T06:37:48;9.70;;;2.65;;
26906;SDS011;14472;56.880;16.658;2022-07-09T06:40:14;10.05;;;2.55;;
26906;SDS011;14472;56.880;16.658;2022-07-09T06:42:40;7.93;;;2.55;;
26906;SDS011;14472;56.880;16.658;2022-07-09T06:45:06;10.45;;;2.97;;
26906;SDS011;14472;56.880;16.658;2022-07-09T06:47:32;8.50;;;2.85;;
26906;SDS011;14472;56.880;16.658;2022-07-09T06:49:58;9.57;;;2.58;;
26906;SDS011;14472;56.880;16.658;2022-07-09T06:52:24;8.25;;;2.70;;
26906;SDS011;14472;56.880;16.658;2022-07-09T06:54:50;9.13;;;3.15;;
26906;SDS011;14472;56.880;16.658;2022-07-09T06:57:16;7.97;;;2.50;;
26906;SDS011;14472;56.880;16.658;2022-07-09T06:59:43;8.98;;;2.50;;
26906;SDS011;14472;56.880;16.658;2022-07-09T07:02:12;9.60;;;2.58;;
26906;SDS011;14472;56.880;16.658;2022-07-09T07:04:40;8.70;;;2.70;;
26906;SDS011;14472;56.880;16.658;2022-07-09T07:07:06;8.43;;;2.63;;
26906;SDS011;14472;56.880;16.658;2022-07-09T07:09:32;10.25;;;3.17;;
26906;SDS011;14472;56.880;16.658;2022-07-09T07:11:58;8.00;;;2.50;;
26906;SDS011;14472;56.880;16.658;2022-07-09T07:14:23;8.15;;;2.53;;
26906;SDS011;14472;56.880;16.658;2022-07-09T07:16:49;8.90;;;2.42;;
26906;SDS011;14472;56.880;16.658;2022-07-09T07:19:16;6.60;;;2.55;;
26906;SDS011;14472;56.880;16.658;2022-07-09T07:21:42;5.22;;;2.20;;
26906;SDS011;14472;56.880;16.658;2022-07-09T07:24:08;8.55;;;2.25;;
26906;SDS011;14472;56.880;16.658;2022-07-09T07:26:34;6.88;;;2.28;;
26906;SDS011;14472;56.880;16.658;2022-07-09T07:29:00;7.63;;;2.22;;
26906;SDS011;14472;56.880;16.658;2022-07-09T07:31:26;8.63;;;2.50;;
26906;SDS011;14472;56.880;16.658;2022-07-09T07:33:52;9.98;;;2.75;;
26906;SDS011;14472;56.880;16.658;2022-07-09T07:36:18;7.25;;;2.50;;
26906;SDS011;14472;56.880;16.658;2022-07-09T07:38:44;6.18;;;1.90;;
26906;SDS011;14472;56.880;16.658;2022-07-09T07:41:11;8.30;;;2.22;;
26906;SDS011;14472;56.880;16.658;2022-07-09T07:43:37;6.93;;;2.20;;
26906;SDS011;14472;56.880;16.658;2022-07-09T07:46:03;7.53;;;2.63;;
26906;SDS011;14472;56.880;16.658;2022-07-09T07:48:29;4.85;;;2.10;;
26906;SDS011;14472;56.880;16.658;2022-07-09T07:50:56;7.38;;;2.13;;
26906;SDS011;14472;56.880;16.658;2022-07-09T07:53:22;5.07;;;1.92;;
26906;SDS011;14472;56.880;16.658;2022-07-09T07:55:49;6.07;;;2.25;;
26906;SDS011;14472;56.880;16.658;2022-07-09T07:58:15;7.05;;;2.05;;
26906;SDS011;14472;56.880;16.658;2022-07-09T08:00:41;5.38;;;2.47;;
26906;SDS011;14472;56.880;16.658;2022-07-09T08:03:07;5.05;;;1.83;;
26906;SDS011;14472;56.880;16.658;2022-07-09T08:05:33;6.93;;;1.90;;
26906;SDS011;14472;56.880;16.658;2022-07-09T08:07:59;6.68;;;1.95;;
26906;SDS011;14472;56.880;16.658;2022-07-09T08:10:24;6.72;;;1.90;;
26906;SDS011;14472;56.880;16.658;2022-07-09T08:12:51;6.03;;;1.98;;
26906;SDS011;14472;56.880;16.658;2022-07-09T08:15:17;5.45;;;1.77;;
26906;SDS011;14472;56.880;16.658;2022-07-09T08:17:43;3.53;;;1.50;;
26906;SDS011;14472;56.880;16.658;2022-07-09T08:20:09;5.82;;;1.88;;
26906;SDS011;14472;56.880;16.658;2022-07-09T08:22:35;7.07;;;1.92;;
26906;SDS011;14472;56.880;16.658;2022-07-09T08:25:02;4.95;;;1.60;;
26906;SDS011;14472;56.880;16.658;2022-07-09T08:27:28;4.82;;;1.75;;
26906;SDS011;14472;56.880;16.658;2022-07-09T08:29:54;4.40;;;1.70;;
26906;SDS011;14472;56.880;16.658;2022-07-09T08:32:20;7.70;;;1.52;;
26906;SDS011;14472;56.880;16.658;2022-07-09T08:34:46;7.38;;;1.88;;
26906;SDS011;14472;56.880;16.658;2022-07-09T08:37:11;6.03;;;1.58;;
26906;SDS011;14472;56.880;16.658;2022-07-09T08:39:37;5.07;;;1.52;;
26906;SDS011;14472;56.880;16.658;2022-07-09T08:42:03;7.20;;;1.80;;
26906;SDS011;14472;56.880;16.658;2022-07-09T08:44:37;3.95;;;1.60;;
26906;SDS011;14472;56.880;16.658;2022-07-09T08:47:04;4.05;;;1.60;;
26906;SDS011;14472;56.880;16.658;2022-07-09T08:49:31;5.47;;;1.48;;
26906;SDS011;14472;56.880;16.658;2022-07-09T08:51:57;4.10;;;1.58;;
26906;SDS011;14472;56.880;16.658;2022-07-09T08:54:23;3.38;;;1.52;;
26906;SDS011;14472;56.880;16.658;2022-07-09T08:56:50;4.38;;;1.52;;
26906;SDS011;14472;56.880;16.658;2022-07-09T08:59:16;2.85;;;1.40;;
26906;SDS011;14472;56.880;16.658;2022-07-09T09:01:42;4.60;;;1.50;;
26906;SDS011;14472;56.880;16.658;2022-07-09T09:04:08;3.22;;;1.25;;
26906;SDS011;14472;56.880;16.658;2022-07-09T09:06:37;3.83;;;1.40;;
26906;SDS011;14472;56.880;16.658;2022-07-09T09:09:07;3.78;;;1.20;;
26906;SDS011;14472;56.880;16.658;2022-07-09T09:11:35;3.38;;;1.38;;
26906;SDS011;14472;56.880;16.658;2022-07-09T09:14:01;3.75;;;1.33;;
26906;SDS011;14472;56.880;16.658;2022-07-09T09:16:28;2.28;;;1.20;;
26906;SDS011;14472;56.880;16.658;2022-07-09T09:18:54;2.42;;;1.45;;
26906;SDS011;14472;56.880;16.658;2022-07-09T09:21:21;2.60;;;1.35;;
26906;SDS011;14472;56.880;16.658;2022-07-09T09:23:51;2.53;;;1.20;;
26906;SDS011;14472;56.880;16.658;2022-07-09T09:26:18;3.35;;;1.40;;
26906;SDS011;14472;56.880;16.658;2022-07-09T09:28:55;3.50;;;1.20;;
26906;SDS011;14472;56.880;16.658;2022-07-09T09:31:26;4.50;;;1.40;;
26906;SDS011;14472;56.880;16.658;2022-07-09T09:33:54;4.72;;;1.50;;
26906;SDS011;14472;56.880;16.658;2022-07-09T09:36:28;3.83;;;1.20;;
26906;SDS011;14472;56.880;16.658;2022-07-09T09:41:45;3.28;;;1.10;;
26906;SDS011;14472;56.880;16.658;2022-07-09T09:44:17;7.20;;;1.80;;
26906;SDS011;14472;56.880;16.658;2022-07-09T09:46:44;2.28;;;1.17;;
26906;SDS011;14472;56.880;16.658;2022-07-09T09:49:11;5.93;;;1.40;;
26906;SDS011;14472;56.880;16.658;2022-07-09T09:51:47;3.17;;;1.30;;
26906;SDS011;14472;56.880;16.658;2022-07-09T09:54:13;2.97;;;1.13;;
26906;SDS011;14472;56.880;16.658;2022-07-09T09:56:39;3.85;;;1.00;;
26906;SDS011;14472;56.880;16.658;2022-07-09T09:59:05;3.70;;;1.77;;
26906;SDS011;14472;56.880;16.658;2022-07-09T10:01:31;2.13;;;1.08;;
26906;SDS011;14472;56.880;16.658;2022-07-09T10:03:58;3.25;;;1.20;;
26906;SDS011;14472;56.880;16.658;2022-07-09T10:06:24;3.05;;;1.10;;
26906;SDS011;14472;56.880;16.658;2022-07-09T10:08:51;3.20;;;1.20;;
26906;SDS011;14472;56.880;16.658;2022-07-09T10:11:18;4.82;;;1.35;;
26906;SDS011;14472;56.880;16.658;2022-07-09T10:13:52;3.00;;;1.20;;
26906;SDS011;14472;56.880;16.658;2022-07-09T10:19:24;3.13;;;1.00;;
26906;SDS011;14472;56.880;16.658;2022-07-09T10:21:52;4.13;;;1.25;;
26906;SDS011;14472;56.880;16.658;2022-07-09T10:24:33;2.42;;;1.00;;
26906;SDS011;14472;56.880;16.658;2022-07-09T10:27:09;2.22;;;0.93;;
26906;SDS011;14472;56.880;16.658;2022-07-09T10:29:52;3.92;;;0.80;;
26906;SDS011;14472;56.880;16.658;2022-07-09T10:32:24;2.47;;;1.30;;
26906;SDS011;14472;56.880;16.658;2022-07-09T10:35:04;1.55;;;1.00;;
26906;SDS011;14472;56.880;16.658;2022-07-09T10:39:56;1.73;;;0.93;;
26906;SDS011;14472;56.880;16.658;2022-07-09T10:42:40;3.75;;;0.80;;
26906;SDS011;14472;56.880;16.658;2022-07-09T10:45:23;1.95;;;0.93;;
26906;SDS011;14472;56.880;16.658;2022-07-09T10:48:00;2.15;;;0.85;;
26906;SDS011;14472;56.880;16.658;2022-07-09T10:50:28;2.75;;;1.08;;
26906;SDS011;14472;56.880;16.658;2022-07-09T10:52:55;2.45;;;0.82;;
26906;SDS011;14472;56.880;16.658;2022-07-09T10:55:22;2.60;;;1.08;;
26906;SDS011;14472;56.880;16.658;2022-07-09T10:57:50;2.63;;;1.15;;
26906;SDS011;14472;56.880;16.658;2022-07-09T11:00:17;1.63;;;1.00;;
26906;SDS011;14472;56.880;16.658;2022-07-09T11:02:54;2.85;;;1.10;;
26906;SDS011;14472;56.880;16.658;2022-07-09T11:05:21;2.80;;;1.00;;
26906;SDS011;14472;56.880;16.658;2022-07-09T11:07:54;2.53;;;1.20;;
26906;SDS011;14472;56.880;16.658;2022-07-09T11:10:21;1.42;;;0.90;;
26906;SDS011;14472;56.880;16.658;2022-07-09T11:12:47;3.03;;;1.08;;
26906;SDS011;14472;56.880;16.658;2022-07-09T11:15:17;2.05;;;0.80;;
26906;SDS011;14472;56.880;16.658;2022-07-09T11:17:44;3.40;;;0.90;;
26906;SDS011;14472;56.880;16.658;2022-07-09T11:20:22;1.75;;;0.80;;
26906;SDS011;14472;56.880;16.658;2022-07-09T11:22:48;1.02;;;0.63;;
26906;SDS011;14472;56.880;16.658;2022-07-09T11:25:15;2.85;;;0.77;;
26906;SDS011;14472;56.880;16.658;2022-07-09T11:27:41;2.25;;;0.70;;
26906;SDS011;14472;56.880;16.658;2022-07-09T11:30:14;2.65;;;0.80;;
26906;SDS011;14472;56.880;16.658;2022-07-09T11:32:43;1.83;;;0.73;;
26906;SDS011;14472;56.880;16.658;2022-07-09T11:35:10;2.10;;;0.70;;
26906;SDS011;14472;56.880;16.658;2022-07-09T11:37:37;3.28;;;0.95;;
26906;SDS011;14472;56.880;16.658;2022-07-09T11:40:03;1.92;;;0.70;;
26906;SDS011;14472;56.880;16.658;2022-07-09T11:42:29;1.48;;;0.80;;
26906;SDS011;14472;56.880;16.658;2022-07-09T11:44:56;2.05;;;0.80;;
26906;SDS011;14472;56.880;16.658;2022-07-09T11:47:36;1.05;;;0.70;;
26906;SDS011;14472;56.880;16.658;2022-07-09T11:50:10;3.05;;;0.90;;
26906;SDS011;14472;56.880;16.658;2022-07-09T11:52:58;1.73;;;0.80;;
26906;SDS011;14472;56.880;16.658;2022-07-09T11:55:31;1.95;;;0.88;;
26906;SDS011;14472;56.880;16.658;2022-07-09T11:58:06;1.27;;;0.77;;
26906;SDS011;14472;56.880;16.658;2022-07-09T12:00:34;0.95;;;0.60;;
26906;SDS011;14472;56.880;16.658;2022-07-09T12:03:00;1.52;;;0.70;;
26906;SDS011;14472;56.880;16.658;2022-07-09T12:08:02;1.38;;;0.70;;
26906;SDS011;14472;56.880;16.658;2022-07-09T12:10:31;1.77;;;0.70;;
26906;SDS011;14472;56.880;16.658;2022-07-09T12:12:58;2.67;;;0.82;;
26906;SDS011;14472;56.880;16.658;2022-07-09T12:15:25;1.88;;;0.73;;
26906;SDS011;14472;56.880;16.658;2022-07-09T12:17:56;1.17;;;0.95;;
26906;SDS011;14472;56.880;16.658;2022-07-09T12:20:23;1.63;;;0.90;;
26906;SDS011;14472;56.880;16.658;2022-07-09T12:22:50;1.40;;;0.77;;
26906;SDS011;14472;56.880;16.658;2022-07-09T12:25:17;2.35;;;0.77;;
26906;SDS011;14472;56.880;16.658;2022-07-09T12:27:44;2.97;;;1.15;;
26906;SDS011;14472;56.880;16.658;2022-07-09T12:30:10;2.88;;;0.80;;
26906;SDS011;14472;56.880;16.658;2022-07-09T12:32:36;3.08;;;0.98;;
26906;SDS011;14472;56.880;16.658;2022-07-09T12:35:03;1.73;;;0.75;;
26906;SDS011;14472;56.880;16.658;2022-07-09T12:37:29;1.73;;;0.90;;
26906;SDS011;14472;56.880;16.658;2022-07-09T12:39:55;2.15;;;0.80;;
26906;SDS011;14472;56.880;16.658;2022-07-09T12:42:20;1.20;;;0.85;;
26906;SDS011;14472;56.880;16.658;2022-07-09T12:44:49;0.77;;;0.50;;
26906;SDS011;14472;56.880;16.658;2022-07-09T12:47:15;1.27;;;0.60;;
26906;SDS011;14472;56.880;16.658;2022-07-09T12:49:41;1.98;;;0.77;;
26906;SDS011;14472;56.880;16.658;2022-07-09T12:52:07;3.60;;;0.80;;
26906;SDS011;14472;56.880;16.658;2022-07-09T12:54:33;1.23;;;0.80;;
26906;SDS011;14472;56.880;16.658;2022-07-09T12:56:59;2.03;;;0.82;;
26906;SDS011;14472;56.880;16.658;2022-07-09T12:59:25;2.75;;;0.93;;
26906;SDS011;14472;56.880;16.658;2022-07-09T13:01:50;1.20;;;0.75;;
26906;SDS011;14472;56.880;16.658;2022-07-09T13:04:16;1.00;;;0.60;;
26906;SDS011;14472;56.880;16.658;2022-07-09T13:06:42;1.02;;;0.55;;
26906;SDS011;14472;56.880;16.658;2022-07-09T13:09:09;1.10;;;0.75;;
26906;SDS011;14472;56.880;16.658;2022-07-09T13:11:36;1.48;;;0.70;;
26906;SDS011;14472;56.880;16.658;2022-07-09T13:14:02;1.20;;;0.70;;
26906;SDS011;14472;56.880;16.658;2022-07-09T13:16:28;2.85;;;0.88;;
26906;SDS011;14472;56.880;16.658;2022-07-09T13:18:54;2.15;;;0.80;;
26906;SDS011;14472;56.880;16.658;2022-07-09T13:21:21;1.65;;;0.80;;
26906;SDS011;14472;56.880;16.658;2022-07-09T13:23:48;1.58;;;1.00;;
26906;SDS011;14472;56.880;16.658;2022-07-09T13:26:14;2.95;;;0.88;;
26906;SDS011;14472;56.880;16.658;2022-07-09T13:28:40;1.58;;;0.80;;
26906;SDS011;14472;56.880;16.658;2022-07-09T13:31:06;1.85;;;0.77;;
26906;SDS011;14472;56.880;16.658;2022-07-09T13:33:32;2.08;;;0.90;;
26906;SDS011;14472;56.880;16.658;2022-07-09T13:35:59;1.45;;;0.82;;
26906;SDS011;14472;56.880;16.658;2022-07-09T13:38:26;1.10;;;0.80;;
26906;SDS011;14472;56.880;16.658;2022-07-09T13:40:52;2.58;;;0.90;;
26906;SDS011;14472;56.880;16.658;2022-07-09T13:43:19;2.05;;;1.10;;
26906;SDS011;14472;56.880;16.658;2022-07-09T13:45:44;1.85;;;0.80;;
26906;SDS011;14472;56.880;16.658;2022-07-09T13:48:10;1.85;;;0.90;;
26906;SDS011;14472;56.880;16.658;2022-07-09T13:50:36;1.73;;;0.93;;
26906;SDS011;14472;56.880;16.658;2022-07-09T13:53:02;2.70;;;0.93;;
26906;SDS011;14472;56.880;16.658;2022-07-09T13:55:31;2.05;;;0.80;;
26906;SDS011;14472;56.880;16.658;2022-07-09T13:57:57;2.63;;;0.95;;
26906;SDS011;14472;56.880;16.658;2022-07-09T14:00:23;1.08;;;0.82;;
26906;SDS011;14472;56.880;16.658;2022-07-09T14:02:50;3.95;;;1.38;;
26906;SDS011;14472;56.880;16.658;2022-07-09T14:05:15;1.77;;;0.80;;
26906;SDS011;14472;56.880;16.658;2022-07-09T14:07:41;2.67;;;0.80;;
26906;SDS011;14472;56.880;16.658;2022-07-09T14:10:07;1.83;;;0.90;;
26906;SDS011;14472;56.880;16.658;2022-07-09T14:12:33;2.00;;;0.70;;
26906;SDS011;14472;56.880;16.658;2022-07-09T14:14:59;3.50;;;0.90;;
26906;SDS011;14472;56.880;16.658;2022-07-09T14:17:25;3.97;;;1.30;;
26906;SDS011;14472;56.880;16.658;2022-07-09T14:19:51;2.88;;;0.90;;
26906;SDS011;14472;56.880;16.658;2022-07-09T14:22:17;3.42;;;0.80;;
26906;SDS011;14472;56.880;16.658;2022-07-09T14:24:44;4.28;;;0.90;;
26906;SDS011;14472;56.880;16.658;2022-07-09T14:27:10;2.00;;;0.82;;
26906;SDS011;14472;56.880;16.658;2022-07-09T14:29:37;1.45;;;0.90;;
26906;SDS011;14472;56.880;16.658;2022-07-09T14:32:03;2.65;;;0.80;;
26906;SDS011;14472;56.880;16.658;2022-07-09T14:34:29;2.22;;;0.98;;
26906;SDS011;14472;56.880;16.658;2022-07-09T14:36:55;2.15;;;0.80;;
26906;SDS011;14472;56.880;16.658;2022-07-09T14:39:21;1.65;;;1.00;;
26906;SDS011;14472;56.880;16.658;2022-07-09T14:41:47;1.55;;;0.70;;